createdAt,value
2023-05-12T00:02:13.325Z,16.06
2023-05-12T00:07:14.983Z,16.02
2023-05-12T00:12:16.656Z,16.01
2023-05-12T00:17:18.419Z,16.24
2023-05-12T00:22:20.391Z,16.45
2023-05-12T00:27:24.415Z,16.21
2023-05-12T00:32:27.414Z,15.93
2023-05-12T00:37:29.095Z,16.28
2023-05-12T00:42:30.630Z,15.88
2023-05-12T00:47:33.506Z,15.84
2023-05-12T00:52:35.476Z,16.05
2023-05-12T00:57:37.262Z,16.10
2023-05-12T01:02:41.480Z,15.79
2023-05-12T01:07:46.503Z,16.16
2023-05-12T01:12:48.729Z,16.00
2023-05-12T01:18:01.541Z,15.80
2023-05-12T01:23:04.850Z,15.91
2023-05-12T01:28:07.155Z,16.29
2023-05-12T01:33:10.770Z,15.95
2023-05-12T01:38:12.903Z,15.96
2023-05-12T01:43:16.387Z,16.11
2023-05-12T01:48:17.941Z,16.18
2023-05-12T01:53:21.362Z,16.72
2023-05-12T01:58:22.931Z,16.17
2023-05-12T02:03:25.044Z,16.16
2023-05-12T02:08:28.956Z,16.23
2023-05-12T02:13:30.678Z,16.20
2023-05-12T02:18:32.592Z,16.56
2023-05-12T02:23:34.561Z,16.20
2023-05-12T02:28:36.658Z,16.35
2023-05-12T02:33:39.700Z,16.32
2023-05-12T02:38:41.464Z,16.35
2023-05-12T02:43:44.057Z,16.20
2023-05-12T02:48:46.113Z,16.06
2023-05-12T02:53:47.818Z,16.51
2023-05-12T02:58:49.632Z,16.46
2023-05-12T03:03:51.340Z,16.25
2023-05-12T03:08:54.519Z,16.53
2023-05-12T03:13:56.246Z,16.54
2023-05-12T03:18:57.864Z,16.56
2023-05-12T03:23:59.507Z,16.69
2023-05-12T03:29:01.276Z,16.65
2023-05-12T03:34:03.072Z,16.70
2023-05-12T03:39:05.187Z,16.87
2023-05-12T03:44:08.715Z,16.84
2023-05-12T03:49:10.678Z,17.15
2023-05-12T03:54:12.256Z,17.01
2023-05-12T03:59:14.226Z,16.98
2023-05-12T04:04:15.922Z,17.07
2023-05-12T04:09:17.700Z,17.03
2023-05-12T04:14:20.467Z,17.09
2023-05-12T04:19:26.334Z,17.16
2023-05-12T04:24:27.987Z,17.21
2023-05-12T04:29:29.674Z,17.19
2023-05-12T04:34:31.525Z,16.98
2023-05-12T04:39:33.186Z,17.19
2023-05-12T04:44:35.495Z,17.29
2023-05-12T04:49:37.188Z,17.29
2023-05-12T04:54:39.078Z,17.43
2023-05-12T04:59:42.497Z,17.20
2023-05-12T05:04:44.588Z,17.44
2023-05-12T05:09:46.573Z,17.67
2023-05-12T05:14:48.374Z,17.43
2023-05-12T05:19:58.330Z,17.29
2023-05-12T05:25:05.946Z,17.34
2023-05-12T05:30:09.365Z,18.05
2023-05-12T05:35:12.200Z,17.95
2023-05-12T05:40:20.629Z,17.58
2023-05-12T05:45:22.688Z,17.92
2023-05-12T05:50:26.274Z,18.00
2023-05-12T05:55:28.128Z,18.27
2023-05-12T06:00:31.384Z,18.51
2023-05-12T06:05:33.120Z,18.31
2023-05-12T06:10:35.261Z,18.38
2023-05-12T06:15:36.998Z,18.97
2023-05-12T06:20:39.631Z,19.19
2023-05-12T06:25:54.592Z,19.05
2023-05-12T06:30:56.380Z,18.84
2023-05-12T06:35:58.140Z,18.65
2023-05-12T06:41:00.179Z,19.17
2023-05-12T06:46:02.630Z,19.49
2023-05-12T06:51:04.656Z,19.13
2023-05-12T06:56:06.400Z,19.08
2023-05-12T07:01:20.080Z,19.35
2023-05-12T07:06:22.161Z,19.28
2023-05-12T07:11:24.060Z,19.11
2023-05-12T07:16:26.194Z,19.90
2023-05-12T07:21:29.633Z,19.99
2023-05-12T07:26:31.354Z,20.26
2023-05-12T07:31:34.030Z,20.95
2023-05-12T07:36:35.766Z,21.38
2023-05-12T07:41:39.602Z,21.75
2023-05-12T07:46:41.623Z,20.31
2023-05-12T07:51:43.499Z,20.77
2023-05-12T07:56:45.277Z,20.52
2023-05-12T08:01:47.037Z,20.15
2023-05-12T08:06:48.651Z,21.14
2023-05-12T08:11:51.536Z,21.63
2023-05-12T08:16:53.649Z,20.99
2023-05-12T08:21:55.425Z,21.41
2023-05-12T08:26:57.092Z,21.25
2023-05-12T08:31:58.994Z,21.21
2023-05-12T08:37:01.271Z,21.65
2023-05-12T08:42:21.717Z,21.23
2023-05-12T08:47:25.495Z,21.87
2023-05-12T08:52:34.918Z,21.56
2023-05-12T08:57:38.289Z,22.14
2023-05-12T09:02:53.102Z,22.29
2023-05-12T09:07:56.891Z,22.73
2023-05-12T09:13:16.110Z,22.49
2023-05-12T09:18:17.880Z,22.32
2023-05-12T09:23:23.752Z,22.62
2023-05-12T09:28:34.649Z,23.04
2023-05-12T09:33:36.895Z,23.25
2023-05-12T09:38:39.196Z,23.13
2023-05-12T09:43:47.392Z,22.70
2023-05-12T09:48:49.106Z,23.34
2023-05-12T09:53:50.795Z,23.05
2023-05-12T09:58:56.916Z,23.35
2023-05-12T10:04:01.957Z,24.22
2023-05-12T10:09:09.835Z,22.80
2023-05-12T10:14:11.496Z,23.53
2023-05-12T10:19:14.084Z,23.04
2023-05-12T10:24:17.010Z,24.57
2023-05-12T10:29:18.755Z,24.15
2023-05-12T10:34:21.004Z,24.23
2023-05-12T10:39:32.996Z,24.50
2023-05-12T10:44:36.365Z,25.10
2023-05-12T10:49:41.898Z,25.22
2023-05-12T10:54:44.699Z,25.20
2023-05-12T10:59:52.095Z,25.17
2023-05-12T11:05:04.632Z,25.43
2023-05-12T11:10:08.063Z,25.23
2023-05-12T11:15:10.309Z,24.21
2023-05-12T11:20:23.152Z,24.07
2023-05-12T11:25:27.234Z,24.39
2023-05-12T11:30:28.888Z,24.51
2023-05-12T11:35:32.307Z,24.12
2023-05-12T11:40:40.350Z,24.61
2023-05-12T11:45:42.305Z,25.00
2023-05-12T11:50:47.772Z,24.51
2023-05-12T11:55:51.128Z,25.42
2023-05-12T12:00:54.119Z,25.76
2023-05-12T12:06:01.524Z,24.66
2023-05-12T12:11:04.243Z,24.59
2023-05-12T12:16:06.009Z,25.00
2023-05-12T12:21:07.873Z,24.70
2023-05-12T12:26:09.565Z,25.37
2023-05-12T12:31:11.417Z,25.34
2023-05-12T12:36:13.085Z,24.60
2023-05-12T12:41:15.185Z,25.20
2023-05-12T12:46:16.876Z,25.72
2023-05-12T12:51:18.630Z,24.27
2023-05-12T12:56:22.733Z,25.77
2023-05-12T13:01:25.552Z,25.85
2023-05-12T13:06:27.718Z,25.69
2023-05-12T13:11:29.425Z,25.66
2023-05-12T13:16:31.679Z,26.44
2023-05-12T13:21:41.961Z,26.08
2023-05-12T13:26:43.750Z,27.51
2023-05-12T13:31:46.496Z,26.65
2023-05-12T13:36:49.393Z,26.88
2023-05-12T13:41:51.314Z,27.08
2023-05-12T13:46:53.779Z,26.64
2023-05-12T13:51:55.369Z,27.92
2023-05-12T13:56:57.122Z,26.54
2023-05-12T14:01:59.297Z,27.17
2023-05-12T14:07:00.986Z,25.90
2023-05-12T14:12:04.320Z,26.64
2023-05-12T14:17:05.868Z,26.96
2023-05-12T14:22:15.572Z,26.62
2023-05-12T14:27:26.855Z,26.66
2023-05-12T14:32:28.574Z,25.63
2023-05-12T14:37:30.856Z,25.70
2023-05-12T14:42:32.961Z,25.61
2023-05-12T14:47:34.574Z,25.24
2023-05-12T14:52:39.140Z,25.46
2023-05-12T14:57:41.708Z,25.02
2023-05-12T15:02:44.968Z,25.61
2023-05-12T15:07:46.584Z,26.17
2023-05-12T15:12:48.151Z,26.23
2023-05-12T15:17:49.816Z,25.21
2023-05-12T15:22:54.287Z,25.23
2023-05-12T15:27:55.904Z,26.29
2023-05-12T15:32:57.508Z,26.02
2023-05-12T15:37:59.459Z,25.83
2023-05-12T15:43:01.155Z,26.60
2023-05-12T15:48:03.810Z,26.49
2023-05-12T15:53:07.069Z,26.12
2023-05-12T15:58:09.110Z,26.06
2023-05-12T16:03:10.750Z,25.80
2023-05-12T16:08:14.152Z,25.96
2023-05-12T16:13:15.715Z,25.84
2023-05-12T16:18:17.675Z,25.68
2023-05-12T16:23:19.232Z,25.57
2023-05-12T16:28:21.216Z,26.02
2023-05-12T16:33:23.405Z,25.71
2023-05-12T16:38:25.003Z,25.18
2023-05-12T16:43:26.600Z,25.86
2023-05-12T16:48:35.417Z,26.49
2023-05-12T16:53:37.385Z,26.42
2023-05-12T16:58:39.051Z,26.43
2023-05-12T17:03:40.643Z,26.96
2023-05-12T17:08:42.469Z,27.29
2023-05-12T17:13:43.994Z,27.16
2023-05-12T17:23:50.681Z,25.72
2023-05-12T17:28:52.233Z,24.67
2023-05-12T17:33:53.991Z,25.09
2023-05-12T17:38:55.587Z,24.89
2023-05-12T17:43:57.206Z,24.74
2023-05-12T17:48:58.725Z,23.68
2023-05-12T17:54:00.439Z,24.32
2023-05-12T17:59:03.368Z,24.56
2023-05-12T18:04:05.315Z,24.18
2023-05-12T18:09:07.406Z,23.83
2023-05-12T18:14:09.080Z,24.03
2023-05-12T18:19:10.998Z,23.61
2023-05-12T18:24:12.659Z,23.65
2023-05-12T18:29:14.320Z,23.18
2023-05-12T18:34:15.932Z,23.53
2023-05-12T18:39:18.312Z,23.54
2023-05-12T18:44:20.082Z,23.67
2023-05-12T18:49:21.914Z,22.03
2023-05-12T18:54:23.466Z,21.72
2023-05-12T18:59:25.041Z,21.97
2023-05-12T19:04:26.683Z,22.05
2023-05-12T19:09:28.286Z,22.44
2023-05-12T19:14:30.000Z,22.45
2023-05-12T19:19:31.541Z,22.43
2023-05-12T19:24:33.185Z,21.71
2023-05-12T19:29:34.806Z,21.87
2023-05-12T19:34:36.986Z,21.55
2023-05-12T19:39:38.688Z,22.03
2023-05-12T19:44:40.248Z,21.64
2023-05-12T19:49:41.945Z,21.38
2023-05-12T19:54:44.305Z,21.43
2023-05-12T19:59:45.899Z,21.35
2023-05-12T20:04:47.478Z,20.91
2023-05-12T20:09:49.050Z,20.17
2023-05-12T20:14:50.632Z,20.94
2023-05-12T20:19:52.204Z,21.21
2023-05-12T20:24:53.737Z,20.83
2023-05-12T20:29:55.264Z,20.48
2023-05-12T20:34:56.894Z,20.39
2023-05-12T20:39:58.532Z,20.79
2023-05-12T20:45:00.108Z,20.66
2023-05-12T20:50:05.525Z,21.05
2023-05-12T20:55:07.949Z,21.10
2023-05-12T21:00:10.925Z,20.94
2023-05-12T21:05:12.654Z,20.84
2023-05-12T21:10:14.325Z,20.88
2023-05-12T21:15:15.953Z,20.61
2023-05-12T21:20:17.627Z,20.51
2023-05-12T21:25:19.365Z,20.50
2023-05-12T21:30:21.736Z,20.71
2023-05-12T21:35:23.959Z,20.47
2023-05-12T21:40:25.537Z,20.39
2023-05-12T21:45:27.094Z,20.39
2023-05-12T21:50:28.723Z,20.37
2023-05-12T21:55:30.500Z,20.17
2023-05-12T22:00:32.088Z,20.19
2023-05-12T22:05:33.763Z,19.99
2023-05-12T22:10:35.488Z,19.82
2023-05-12T22:15:37.269Z,20.33
2023-05-12T22:20:39.077Z,19.97
2023-05-12T22:25:40.940Z,19.95
2023-05-12T22:30:44.844Z,19.66
2023-05-12T22:35:46.572Z,19.64
2023-05-12T22:40:48.198Z,19.51
2023-05-12T22:45:53.034Z,19.36
2023-05-12T22:50:54.736Z,19.20
2023-05-12T22:55:56.380Z,18.82
2023-05-12T23:00:57.977Z,18.80
2023-05-12T23:05:59.545Z,18.77
2023-05-12T23:11:01.150Z,18.51
2023-05-12T23:16:05.791Z,18.53
2023-05-12T23:21:07.398Z,18.50
2023-05-12T23:26:09.590Z,18.39
2023-05-12T23:31:11.230Z,18.05
2023-05-12T23:36:13.650Z,18.32
2023-05-12T23:41:15.408Z,17.83
2023-05-12T23:46:17.537Z,17.86
2023-05-12T23:51:19.339Z,17.75
2023-05-12T23:56:22.348Z,17.76
